sensor_id;sensor_type;location;lat;lon;timestamp;pressure;altitude;pressure_sealevel;temperature;humidity
12969;BME280;6549;53.128;8.182;2023-05-07T00:01:56;101683.31;;;10.80;100.00
12969;BME280;6549;53.128;8.182;2023-05-07T00:04:57;101687.72;;;10.85;100.00
12969;BME280;6549;53.128;8.182;2023-05-07T00:08:03;101679.28;;;10.74;100.00
12969;BME280;6549;53.128;8.182;2023-05-07T00:11:03;101688.69;;;10.73;100.00
12969;BME280;6549;53.128;8.182;2023-05-07T00:14:04;101681.66;;;10.76;100.00
12969;BME280;6549;53.128;8.182;2023-05-07T00:17:05;101673.72;;;10.71;100.00
12969;BME280;6549;53.128;8.182;2023-05-07T00:20:05;101677.25;;;10.71;100.00
12969;BME280;6549;53.128;8.182;2023-05-07T00:23:06;101688.00;;;10.57;100.00
12969;BME280;6549;53.128;8.182;2023-05-07T00:26:06;101681.47;;;10.46;100.00
12969;BME280;6549;53.128;8.182;2023-05-07T00:29:06;101688.06;;;10.42;100.00
12969;BME280;6549;53.128;8.182;2023-05-07T00:32:07;101670.13;;;10.48;100.00
12969;BME280;6549;53.128;8.182;2023-05-07T00:35:08;101671.84;;;10.56;100.00
12969;BME280;6549;53.128;8.182;2023-05-07T00:38:08;101682.06;;;10.55;100.00
12969;BME280;6549;53.128;8.182;2023-05-07T00:41:09;101685.66;;;10.59;100.00
12969;BME280;6549;53.128;8.182;2023-05-07T00:44:09;101684.16;;;10.43;100.00
12969;BME280;6549;53.128;8.182;2023-05-07T00:47:10;101682.91;;;10.21;100.00
12969;BME280;6549;53.128;8.182;2023-05-07T00:50:10;101684.53;;;10.22;100.00
12969;BME280;6549;53.128;8.182;2023-05-07T00:53:12;101689.22;;;10.21;100.00
12969;BME280;6549;53.128;8.182;2023-05-07T00:56:12;101692.25;;;10.16;100.00
12969;BME280;6549;53.128;8.182;2023-05-07T00:59:13;101679.22;;;10.32;100.00
12969;BME280;6549;53.128;8.182;2023-05-07T01:02:13;101689.69;;;10.27;100.00
12969;BME280;6549;53.128;8.182;2023-05-07T01:05:15;101686.09;;;10.23;100.00
12969;BME280;6549;53.128;8.182;2023-05-07T01:08:17;101686.53;;;10.25;100.00
12969;BME280;6549;53.128;8.182;2023-05-07T01:11:18;101685.03;;;10.12;100.00
12969;BME280;6549;53.128;8.182;2023-05-07T01:14:20;101693.63;;;10.10;100.00
12969;BME280;6549;53.128;8.182;2023-05-07T01:17:21;101693.56;;;10.07;100.00
12969;BME280;6549;53.128;8.182;2023-05-07T01:20:22;101687.19;;;10.03;100.00
12969;BME280;6549;53.128;8.182;2023-05-07T01:23:23;101693.50;;;10.03;100.00
12969;BME280;6549;53.128;8.182;2023-05-07T01:26:23;101685.16;;;10.15;100.00
12969;BME280;6549;53.128;8.182;2023-05-07T01:29:24;101688.78;;;10.04;100.00
12969;BME280;6549;53.128;8.182;2023-05-07T01:32:29;101693.31;;;9.96;100.00
12969;BME280;6549;53.128;8.182;2023-05-07T01:35:37;101696.38;;;9.91;100.00
12969;BME280;6549;53.128;8.182;2023-05-07T01:38:39;101684.22;;;9.92;100.00
12969;BME280;6549;53.128;8.182;2023-05-07T01:41:42;101684.69;;;9.78;100.00
12969;BME280;6549;53.128;8.182;2023-05-07T01:44:43;101686.47;;;9.71;100.00
12969;BME280;6549;53.128;8.182;2023-05-07T01:47:43;101686.00;;;9.84;100.00
12969;BME280;6549;53.128;8.182;2023-05-07T01:50:44;101694.59;;;9.83;100.00
12969;BME280;6549;53.128;8.182;2023-05-07T01:53:45;101695.06;;;9.69;100.00
12969;BME280;6549;53.128;8.182;2023-05-07T01:56:47;101689.66;;;9.73;100.00
12969;BME280;6549;53.128;8.182;2023-05-07T01:59:48;101697.72;;;9.66;100.00
12969;BME280;6549;53.128;8.182;2023-05-07T02:02:49;101693.81;;;9.67;100.00
12969;BME280;6549;53.128;8.182;2023-05-07T02:05:49;101695.69;;;9.63;100.00
12969;BME280;6549;53.128;8.182;2023-05-07T02:08:49;101698.59;;;9.70;100.00
12969;BME280;6549;53.128;8.182;2023-05-07T02:11:50;101697.91;;;9.73;100.00
12969;BME280;6549;53.128;8.182;2023-05-07T02:14:50;101696.72;;;9.74;100.00
12969;BME280;6549;53.128;8.182;2023-05-07T02:18:08;101705.59;;;9.67;100.00
12969;BME280;6549;53.128;8.182;2023-05-07T02:21:09;101706.41;;;9.68;100.00
12969;BME280;6549;53.128;8.182;2023-05-07T02:24:09;101713.84;;;9.67;100.00
12969;BME280;6549;53.128;8.182;2023-05-07T02:27:10;101707.38;;;9.60;100.00
12969;BME280;6549;53.128;8.182;2023-05-07T02:30:10;101709.50;;;9.66;100.00
12969;BME280;6549;53.128;8.182;2023-05-07T02:33:10;101708.28;;;9.64;100.00
12969;BME280;6549;53.128;8.182;2023-05-07T02:36:12;101712.16;;;9.63;100.00
12969;BME280;6549;53.128;8.182;2023-05-07T02:39:13;101718.72;;;9.58;100.00
12969;BME280;6549;53.128;8.182;2023-05-07T02:42:13;101717.56;;;9.43;100.00
12969;BME280;6549;53.128;8.182;2023-05-07T02:45:13;101713.25;;;9.42;100.00
12969;BME280;6549;53.128;8.182;2023-05-07T02:48:14;101709.25;;;9.40;100.00
12969;BME280;6549;53.128;8.182;2023-05-07T02:51:19;101706.84;;;9.38;100.00
12969;BME280;6549;53.128;8.182;2023-05-07T02:54:19;101708.44;;;9.39;100.00
12969;BME280;6549;53.128;8.182;2023-05-07T02:57:20;101714.03;;;9.27;100.00
12969;BME280;6549;53.128;8.182;2023-05-07T03:00:20;101706.69;;;9.31;100.00
12969;BME280;6549;53.128;8.182;2023-05-07T03:03:21;101716.13;;;9.34;100.00
12969;BME280;6549;53.128;8.182;2023-05-07T03:06:21;101711.38;;;9.31;100.00
12969;BME280;6549;53.128;8.182;2023-05-07T03:09:21;101718.53;;;9.20;100.00
12969;BME280;6549;53.128;8.182;2023-05-07T03:12:22;101714.44;;;9.29;100.00
12969;BME280;6549;53.128;8.182;2023-05-07T03:15:22;101713.84;;;9.36;100.00
12969;BME280;6549;53.128;8.182;2023-05-07T03:18:22;101715.00;;;9.19;100.00
12969;BME280;6549;53.128;8.182;2023-05-07T03:21:23;101718.06;;;9.02;100.00
12969;BME280;6549;53.128;8.182;2023-05-07T03:24:23;101715.75;;;8.88;100.00
12969;BME280;6549;53.128;8.182;2023-05-07T03:27:23;101708.25;;;9.01;100.00
12969;BME280;6549;53.128;8.182;2023-05-07T03:30:24;101692.41;;;8.94;100.00
12969;BME280;6549;53.128;8.182;2023-05-07T03:33:24;101689.81;;;8.86;100.00
12969;BME280;6549;53.128;8.182;2023-05-07T03:36:24;101702.84;;;8.89;100.00
12969;BME280;6549;53.128;8.182;2023-05-07T03:39:26;101708.16;;;8.97;100.00
12969;BME280;6549;53.128;8.182;2023-05-07T03:42:28;101698.75;;;8.83;100.00
12969;BME280;6549;53.128;8.182;2023-05-07T03:45:28;101692.41;;;8.94;100.00
12969;BME280;6549;53.128;8.182;2023-05-07T03:48:29;101703.28;;;8.91;100.00
12969;BME280;6549;53.128;8.182;2023-05-07T03:51:30;101696.66;;;8.92;100.00
12969;BME280;6549;53.128;8.182;2023-05-07T03:54:30;101700.53;;;8.91;100.00
12969;BME280;6549;53.128;8.182;2023-05-07T03:57:31;101704.53;;;9.09;100.00
12969;BME280;6549;53.128;8.182;2023-05-07T04:00:31;101710.34;;;8.92;100.00
12969;BME280;6549;53.128;8.182;2023-05-07T04:03:34;101700.91;;;9.05;100.00
12969;BME280;6549;53.128;8.182;2023-05-07T04:06:34;101713.53;;;8.94;100.00
12969;BME280;6549;53.128;8.182;2023-05-07T04:09:34;101712.38;;;8.95;100.00
12969;BME280;6549;53.128;8.182;2023-05-07T04:12:34;101708.75;;;8.91;100.00
12969;BME280;6549;53.128;8.182;2023-05-07T04:15:35;101710.25;;;8.88;100.00
12969;BME280;6549;53.128;8.182;2023-05-07T04:18:36;101706.97;;;8.83;100.00
12969;BME280;6549;53.128;8.182;2023-05-07T04:21:36;101708.31;;;8.89;100.00
12969;BME280;6549;53.128;8.182;2023-05-07T04:24:36;101719.00;;;8.94;100.00
12969;BME280;6549;53.128;8.182;2023-05-07T04:27:37;101718.13;;;8.90;100.00
12969;BME280;6549;53.128;8.182;2023-05-07T04:30:38;101725.50;;;9.01;100.00
12969;BME280;6549;53.128;8.182;2023-05-07T04:33:38;101720.69;;;8.98;100.00
12969;BME280;6549;53.128;8.182;2023-05-07T04:36:39;101717.84;;;8.79;100.00
12969;BME280;6549;53.128;8.182;2023-05-07T04:39:39;101714.31;;;8.94;100.00
12969;BME280;6549;53.128;8.182;2023-05-07T04:42:39;101716.09;;;8.87;100.00
12969;BME280;6549;53.128;8.182;2023-05-07T04:45:40;101722.13;;;8.92;100.00
12969;BME280;6549;53.128;8.182;2023-05-07T04:48:41;101720.50;;;8.91;100.00
12969;BME280;6549;53.128;8.182;2023-05-07T04:51:41;101723.38;;;9.11;100.00
12969;BME280;6549;53.128;8.182;2023-05-07T04:54:42;101729.56;;;9.08;100.00
12969;BME280;6549;53.128;8.182;2023-05-07T04:57:43;101717.09;;;9.10;100.00
12969;BME280;6549;53.128;8.182;2023-05-07T05:00:43;101726.66;;;9.16;100.00
12969;BME280;6549;53.128;8.182;2023-05-07T05:03:43;101731.97;;;9.09;100.00
12969;BME280;6549;53.128;8.182;2023-05-07T05:06:44;101732.50;;;9.15;100.00
12969;BME280;6549;53.128;8.182;2023-05-07T05:09:44;101736.94;;;9.19;100.00
12969;BME280;6549;53.128;8.182;2023-05-07T05:12:44;101738.34;;;9.13;100.00
12969;BME280;6549;53.128;8.182;2023-05-07T05:15:45;101739.44;;;9.24;100.00
12969;BME280;6549;53.128;8.182;2023-05-07T05:18:45;101738.41;;;9.17;100.00
12969;BME280;6549;53.128;8.182;2023-05-07T05:21:46;101742.03;;;9.05;100.00
12969;BME280;6549;53.128;8.182;2023-05-07T05:24:46;101747.53;;;9.05;100.00
12969;BME280;6549;53.128;8.182;2023-05-07T05:27:46;101741.06;;;9.13;100.00
12969;BME280;6549;53.128;8.182;2023-05-07T05:30:47;101745.66;;;9.09;100.00
12969;BME280;6549;53.128;8.182;2023-05-07T05:33:47;101750.81;;;9.11;100.00
12969;BME280;6549;53.128;8.182;2023-05-07T05:36:47;101745.66;;;9.09;100.00
12969;BME280;6549;53.128;8.182;2023-05-07T05:39:48;101745.66;;;9.09;100.00
12969;BME280;6549;53.128;8.182;2023-05-07T05:42:48;101755.50;;;9.10;100.00
12969;BME280;6549;53.128;8.182;2023-05-07T05:45:48;101764.44;;;9.07;100.00
12969;BME280;6549;53.128;8.182;2023-05-07T05:48:49;101766.38;;;9.07;100.00
12969;BME280;6549;53.128;8.182;2023-05-07T05:51:49;101767.78;;;9.16;100.00
12969;BME280;6549;53.128;8.182;2023-05-07T05:54:49;101766.06;;;9.24;100.00
12969;BME280;6549;53.128;8.182;2023-05-07T05:57:50;101765.34;;;9.27;100.00
12969;BME280;6549;53.128;8.182;2023-05-07T06:00:50;101776.06;;;9.32;100.00
12969;BME280;6549;53.128;8.182;2023-05-07T06:03:52;101769.06;;;9.34;100.00
12969;BME280;6549;53.128;8.182;2023-05-07T06:06:52;101765.88;;;9.32;100.00
12969;BME280;6549;53.128;8.182;2023-05-07T06:09:52;101768.78;;;9.39;100.00
12969;BME280;6549;53.128;8.182;2023-05-07T06:12:53;101767.47;;;9.33;100.00
12969;BME280;6549;53.128;8.182;2023-05-07T06:15:53;101760.56;;;9.39;100.00
12969;BME280;6549;53.128;8.182;2023-05-07T06:18:53;101764.38;;;9.35;100.00
12969;BME280;6549;53.128;8.182;2023-05-07T06:21:54;101761.06;;;9.29;100.00
12969;BME280;6549;53.128;8.182;2023-05-07T06:24:56;101759.94;;;9.30;100.00
12969;BME280;6549;53.128;8.182;2023-05-07T06:27:56;101757.66;;;9.32;100.00
12969;BME280;6549;53.128;8.182;2023-05-07T06:31:16;101753.56;;;9.26;100.00
12969;BME280;6549;53.128;8.182;2023-05-07T06:34:17;101759.78;;;9.39;100.00
12969;BME280;6549;53.128;8.182;2023-05-07T06:37:17;101753.22;;;9.43;100.00
12969;BME280;6549;53.128;8.182;2023-05-07T06:40:18;101759.06;;;9.58;100.00
12969;BME280;6549;53.128;8.182;2023-05-07T06:43:18;101756.06;;;9.63;100.00
12969;BME280;6549;53.128;8.182;2023-05-07T06:46:18;101761.28;;;9.68;100.00
12969;BME280;6549;53.128;8.182;2023-05-07T06:49:19;101760.03;;;9.65;100.00
12969;BME280;6549;53.128;8.182;2023-05-07T06:52:19;101769.00;;;9.62;100.00
12969;BME280;6549;53.128;8.182;2023-05-07T06:55:19;101777.84;;;9.71;100.00
12969;BME280;6549;53.128;8.182;2023-05-07T06:58:20;101780.84;;;9.66;100.00
12969;BME280;6549;53.128;8.182;2023-05-07T07:01:20;101776.63;;;9.69;100.00
12969;BME280;6549;53.128;8.182;2023-05-07T07:04:21;101780.66;;;9.75;100.00
12969;BME280;6549;53.128;8.182;2023-05-07T07:07:23;101788.56;;;9.76;100.00
12969;BME280;6549;53.128;8.182;2023-05-07T07:10:23;101801.22;;;9.81;100.00
12969;BME280;6549;53.128;8.182;2023-05-07T07:13:23;101806.06;;;9.87;100.00
12969;BME280;6549;53.128;8.182;2023-05-07T07:16:24;101806.44;;;9.70;100.00
12969;BME280;6549;53.128;8.182;2023-05-07T07:19:25;101798.81;;;9.79;100.00
12969;BME280;6549;53.128;8.182;2023-05-07T07:22:26;101808.66;;;9.80;100.00
12969;BME280;6549;53.128;8.182;2023-05-07T07:25:26;101804.50;;;9.71;100.00
12969;BME280;6549;53.128;8.182;2023-05-07T07:28:26;101806.53;;;9.89;100.00
12969;BME280;6549;53.128;8.182;2023-05-07T07:31:27;101803.44;;;9.91;100.00
12969;BME280;6549;53.128;8.182;2023-05-07T07:34:27;101806.09;;;9.72;100.00
12969;BME280;6549;53.128;8.182;2023-05-07T07:37:27;101809.88;;;9.83;100.00
12969;BME280;6549;53.128;8.182;2023-05-07T07:40:28;101807.22;;;10.02;100.00
12969;BME280;6549;53.128;8.182;2023-05-07T07:43:28;101811.31;;;9.92;100.00
12969;BME280;6549;53.128;8.182;2023-05-07T07:46:29;101805.69;;;10.05;100.00
12969;BME280;6549;53.128;8.182;2023-05-07T07:49:29;101823.84;;;10.09;100.00
12969;BME280;6549;53.128;8.182;2023-05-07T07:52:29;101814.41;;;10.07;100.00
12969;BME280;6549;53.128;8.182;2023-05-07T07:55:30;101804.47;;;10.02;100.00
12969;BME280;6549;53.128;8.182;2023-05-07T07:58:31;101815.63;;;10.09;100.00
12969;BME280;6549;53.128;8.182;2023-05-07T08:01:31;101827.25;;;10.03;100.00
12969;BME280;6549;53.128;8.182;2023-05-07T08:04:32;101823.09;;;10.09;100.00
12969;BME280;6549;53.128;8.182;2023-05-07T08:07:33;101827.78;;;10.08;100.00
12969;BME280;6549;53.128;8.182;2023-05-07T08:10:33;101825.31;;;10.03;100.00
12969;BME280;6549;53.128;8.182;2023-05-07T08:13:34;101823.50;;;10.11;100.00
12969;BME280;6549;53.128;8.182;2023-05-07T08:16:35;101826.19;;;10.23;100.00
12969;BME280;6549;53.128;8.182;2023-05-07T08:19:35;101823.53;;;10.26;100.00
12969;BME280;6549;53.128;8.182;2023-05-07T08:22:36;101814.03;;;10.40;100.00
12969;BME280;6549;53.128;8.182;2023-05-07T08:25:37;101818.75;;;10.23;100.00
12969;BME280;6549;53.128;8.182;2023-05-07T08:28:37;101821.22;;;10.28;100.00
12969;BME280;6549;53.128;8.182;2023-05-07T08:31:37;101831.66;;;10.39;100.00
12969;BME280;6549;53.128;8.182;2023-05-07T08:34:41;101823.16;;;10.44;100.00
12969;BME280;6549;53.128;8.182;2023-05-07T08:37:41;101821.75;;;10.34;100.00
12969;BME280;6549;53.128;8.182;2023-05-07T08:40:41;101822.34;;;10.43;100.00
12969;BME280;6549;53.128;8.182;2023-05-07T08:43:47;101824.03;;;10.32;100.00
12969;BME280;6549;53.128;8.182;2023-05-07T08:46:48;101817.03;;;10.34;100.00
12969;BME280;6549;53.128;8.182;2023-05-07T08:49:51;101815.66;;;10.25;100.00
12969;BME280;6549;53.128;8.182;2023-05-07T08:52:54;101826.38;;;10.30;100.00
12969;BME280;6549;53.128;8.182;2023-05-07T08:55:55;101826.56;;;10.56;100.00
12969;BME280;6549;53.128;8.182;2023-05-07T08:58:55;101825.06;;;10.78;100.00
12969;BME280;6549;53.128;8.182;2023-05-07T09:01:58;101819.63;;;10.62;100.00
12969;BME280;6549;53.128;8.182;2023-05-07T09:04:58;101825.81;;;10.75;100.00
12969;BME280;6549;53.128;8.182;2023-05-07T09:08:00;101817.41;;;10.87;100.00
12969;BME280;6549;53.128;8.182;2023-05-07T09:11:02;101825.38;;;10.92;100.00
12969;BME280;6549;53.128;8.182;2023-05-07T09:14:02;101825.84;;;10.98;100.00
12969;BME280;6549;53.128;8.182;2023-05-07T09:17:02;101828.25;;;10.99;100.00
12969;BME280;6549;53.128;8.182;2023-05-07T09:20:04;101828.25;;;10.99;100.00
12969;BME280;6549;53.128;8.182;2023-05-07T09:23:06;101830.72;;;11.04;100.00
12969;BME280;6549;53.128;8.182;2023-05-07T09:26:07;101830.97;;;11.38;100.00
12969;BME280;6549;53.128;8.182;2023-05-07T09:29:11;101831.72;;;11.77;100.00
12969;BME280;6549;53.128;8.182;2023-05-07T09:32:12;101840.84;;;11.81;100.00
12969;BME280;6549;53.128;8.182;2023-05-07T09:35:17;101831.16;;;11.90;100.00
12969;BME280;6549;53.128;8.182;2023-05-07T09:38:19;101831.13;;;12.13;100.00
12969;BME280;6549;53.128;8.182;2023-05-07T09:41:21;101830.84;;;11.95;100.00
12969;BME280;6549;53.128;8.182;2023-05-07T09:44:21;101833.13;;;11.90;100.00
12969;BME280;6549;53.128;8.182;2023-05-07T09:47:24;101831.56;;;12.15;100.00
12969;BME280;6549;53.128;8.182;2023-05-07T09:50:29;101826.16;;;12.22;100.00
12969;BME280;6549;53.128;8.182;2023-05-07T09:53:30;101822.25;;;12.00;100.00
12969;BME280;6549;53.128;8.182;2023-05-07T09:56:31;101823.94;;;12.31;100.00
12969;BME280;6549;53.128;8.182;2023-05-07T09:59:32;101829.47;;;12.08;100.00
12969;BME280;6549;53.128;8.182;2023-05-07T10:02:34;101830.63;;;12.30;100.00
12969;BME280;6549;53.128;8.182;2023-05-07T10:05:35;101837.25;;;12.52;100.00
12969;BME280;6549;53.128;8.182;2023-05-07T10:08:37;101830.00;;;12.44;100.00
12969;BME280;6549;53.128;8.182;2023-05-07T10:11:37;101839.94;;;12.48;100.00
12969;BME280;6549;53.128;8.182;2023-05-07T10:14:40;101839.56;;;12.50;100.00
12969;BME280;6549;53.128;8.182;2023-05-07T10:17:40;101831.41;;;12.31;100.00
12969;BME280;6549;53.128;8.182;2023-05-07T10:20:42;101833.69;;;12.51;100.00
12969;BME280;6549;53.128;8.182;2023-05-07T10:23:51;101828.25;;;12.88;100.00
12969;BME280;6549;53.128;8.182;2023-05-07T10:26:53;101829.06;;;13.19;100.00
12969;BME280;6549;53.128;8.182;2023-05-07T10:30:05;101826.97;;;13.45;100.00
12969;BME280;6549;53.128;8.182;2023-05-07T10:33:09;101841.63;;;13.16;100.00
12969;BME280;6549;53.128;8.182;2023-05-07T10:36:10;101833.28;;;13.46;100.00
12969;BME280;6549;53.128;8.182;2023-05-07T10:39:11;101834.09;;;13.46;100.00
12969;BME280;6549;53.128;8.182;2023-05-07T10:42:13;101836.38;;;13.41;100.00
12969;BME280;6549;53.128;8.182;2023-05-07T10:45:14;101834.22;;;13.61;100.00
12969;BME280;6549;53.128;8.182;2023-05-07T10:48:16;101841.47;;;14.23;100.00
12969;BME280;6549;53.128;8.182;2023-05-07T10:51:21;101851.56;;;14.49;100.00
12969;BME280;6549;53.128;8.182;2023-05-07T10:54:22;101846.25;;;14.92;100.00
12969;BME280;6549;53.128;8.182;2023-05-07T11:03:32;101855.03;;;15.08;100.00
12969;BME280;6549;53.128;8.182;2023-05-07T11:06:32;101855.91;;;15.33;100.00
12969;BME280;6549;53.128;8.182;2023-05-07T11:10:04;101854.31;;;15.25;100.00
12969;BME280;6549;53.128;8.182;2023-05-07T11:13:05;101857.34;;;14.95;100.00
12969;BME280;6549;53.128;8.182;2023-05-07T11:16:16;101851.75;;;14.84;100.00
12969;BME280;6549;53.128;8.182;2023-05-07T11:22:50;101843.59;;;15.20;100.00
12969;BME280;6549;53.128;8.182;2023-05-07T11:25:50;101844.75;;;15.08;100.00
12969;BME280;6549;53.128;8.182;2023-05-07T11:28:51;101850.31;;;15.19;100.00
12969;BME280;6549;53.128;8.182;2023-05-07T11:31:53;101852.94;;;14.83;100.00
12969;BME280;6549;53.128;8.182;2023-05-07T11:34:55;101852.03;;;14.65;100.00
12969;BME280;6549;53.128;8.182;2023-05-07T11:38:00;101846.41;;;14.48;100.00
12969;BME280;6549;53.128;8.182;2023-05-07T11:41:00;101834.50;;;14.36;100.00
12969;BME280;6549;53.128;8.182;2023-05-07T11:44:01;101845.19;;;14.42;100.00
12969;BME280;6549;53.128;8.182;2023-05-07T11:47:02;101840.06;;;14.44;100.00
12969;BME280;6549;53.128;8.182;2023-05-07T11:50:05;101835.44;;;14.65;100.00
12969;BME280;6549;53.128;8.182;2023-05-07T11:53:09;101847.03;;;14.27;100.00
12969;BME280;6549;53.128;8.182;2023-05-07T11:56:11;101843.75;;;14.65;100.00
12969;BME280;6549;53.128;8.182;2023-05-07T11:59:11;101842.91;;;14.58;100.00
12969;BME280;6549;53.128;8.182;2023-05-07T12:02:15;101844.97;;;14.17;100.00
12969;BME280;6549;53.128;8.182;2023-05-07T12:05:15;101835.88;;;14.71;100.00
12969;BME280;6549;53.128;8.182;2023-05-07T12:08:18;101842.72;;;14.95;100.00
12969;BME280;6549;53.128;8.182;2023-05-07T12:11:23;101843.00;;;14.68;100.00
12969;BME280;6549;53.128;8.182;2023-05-07T12:14:27;101851.44;;;14.35;100.00
12969;BME280;6549;53.128;8.182;2023-05-07T12:17:28;101849.25;;;14.07;100.00
12969;BME280;6549;53.128;8.182;2023-05-07T12:20:28;101845.47;;;14.29;100.00
12969;BME280;6549;53.128;8.182;2023-05-07T12:23:29;101856.16;;;13.83;100.00
12969;BME280;6549;53.128;8.182;2023-05-07T12:26:29;101847.22;;;14.01;100.00
12969;BME280;6549;53.128;8.182;2023-05-07T12:29:30;101848.66;;;14.35;100.00
12969;BME280;6549;53.128;8.182;2023-05-07T12:32:30;101844.69;;;14.29;100.00
12969;BME280;6549;53.128;8.182;2023-05-07T12:35:32;101857.81;;;13.95;100.00
12969;BME280;6549;53.128;8.182;2023-05-07T12:38:37;101847.69;;;14.10;100.00
12969;BME280;6549;53.128;8.182;2023-05-07T12:41:58;101847.81;;;14.24;100.00
12969;BME280;6549;53.128;8.182;2023-05-07T12:44:59;101856.72;;;14.03;100.00
12969;BME280;6549;53.128;8.182;2023-05-07T12:48:01;101848.88;;;14.09;100.00
12969;BME280;6549;53.128;8.182;2023-05-07T12:51:03;101841.34;;;14.06;100.00
12969;BME280;6549;53.128;8.182;2023-05-07T12:54:04;101845.91;;;13.84;100.00
12969;BME280;6549;53.128;8.182;2023-05-07T12:57:09;101841.03;;;14.18;100.00
12969;BME280;6549;53.128;8.182;2023-05-07T13:00:10;101844.06;;;14.50;100.00
12969;BME280;6549;53.128;8.182;2023-05-07T13:03:11;101850.84;;;14.63;100.00
12969;BME280;6549;53.128;8.182;2023-05-07T13:06:11;101850.47;;;14.64;100.00
12969;BME280;6549;53.128;8.182;2023-05-07T13:09:14;101848.78;;;14.46;100.00
12969;BME280;6549;53.128;8.182;2023-05-07T13:12:15;101844.19;;;14.74;100.00
12969;BME280;6549;53.128;8.182;2023-05-07T13:15:16;101844.59;;;14.73;100.00
12969;BME280;6549;53.128;8.182;2023-05-07T13:18:17;101857.00;;;15.07;100.00
12969;BME280;6549;53.128;8.182;2023-05-07T13:21:17;101839.53;;;14.93;100.00
12969;BME280;6549;53.128;8.182;2023-05-07T13:24:17;101848.34;;;15.23;100.00
12969;BME280;6549;53.128;8.182;2023-05-07T13:27:18;101833.72;;;15.22;100.00
12969;BME280;6549;53.128;8.182;2023-05-07T13:30:19;101839.00;;;15.66;100.00
12969;BME280;6549;53.128;8.182;2023-05-07T13:33:19;101834.66;;;15.80;100.00
12969;BME280;6549;53.128;8.182;2023-05-07T13:36:20;101829.50;;;16.03;100.00
12969;BME280;6549;53.128;8.182;2023-05-07T13:39:20;101827.50;;;16.46;100.00
12969;BME280;6549;53.128;8.182;2023-05-07T13:42:20;101832.63;;;16.54;100.00
12969;BME280;6549;53.128;8.182;2023-05-07T13:45:21;101823.06;;;16.80;100.00
12969;BME280;6549;53.128;8.182;2023-05-07T13:48:21;101826.16;;;16.93;100.00
12969;BME280;6549;53.128;8.182;2023-05-07T13:51:22;101818.13;;;17.16;100.00
12969;BME280;6549;53.128;8.182;2023-05-07T13:54:22;101823.41;;;16.89;100.00
12969;BME280;6549;53.128;8.182;2023-05-07T13:57:22;101827.88;;;16.62;100.00
12969;BME280;6549;53.128;8.182;2023-05-07T14:00:23;101823.41;;;16.93;100.00
12969;BME280;6549;53.128;8.182;2023-05-07T14:03:24;101809.19;;;16.77;100.00
12969;BME280;6549;53.128;8.182;2023-05-07T14:06:25;101819.31;;;17.15;100.00
12969;BME280;6549;53.128;8.182;2023-05-07T14:09:25;101812.03;;;17.42;100.00
12969;BME280;6549;53.128;8.182;2023-05-07T14:12:25;101831.31;;;17.71;100.00
12969;BME280;6549;53.128;8.182;2023-05-07T14:15:26;101826.25;;;17.51;100.00
12969;BME280;6549;53.128;8.182;2023-05-07T14:18:26;101820.69;;;16.72;100.00
12969;BME280;6549;53.128;8.182;2023-05-07T14:21:28;101810.06;;;16.31;100.00
12969;BME280;6549;53.128;8.182;2023-05-07T14:24:29;101802.88;;;16.55;100.00
12969;BME280;6549;53.128;8.182;2023-05-07T14:27:29;101802.91;;;16.41;100.00
12969;BME280;6549;53.128;8.182;2023-05-07T14:30:30;101810.81;;;16.42;100.00
12969;BME280;6549;53.128;8.182;2023-05-07T14:33:30;101808.88;;;16.22;100.00
12969;BME280;6549;53.128;8.182;2023-05-07T14:36:30;101807.28;;;16.31;100.00
12969;BME280;6549;53.128;8.182;2023-05-07T14:39:31;101815.22;;;16.36;100.00
12969;BME280;6549;53.128;8.182;2023-05-07T14:42:32;101826.31;;;16.36;100.00
12969;BME280;6549;53.128;8.182;2023-05-07T14:45:32;101822.72;;;16.39;100.00
12969;BME280;6549;53.128;8.182;2023-05-07T14:48:32;101821.94;;;16.49;100.00
12969;BME280;6549;53.128;8.182;2023-05-07T14:51:32;101824.31;;;16.58;100.00
12969;BME280;6549;53.128;8.182;2023-05-07T14:54:34;101832.22;;;16.67;100.00
12969;BME280;6549;53.128;8.182;2023-05-07T14:57:35;101828.63;;;16.55;100.00
12969;BME280;6549;53.128;8.182;2023-05-07T15:00:35;101824.28;;;16.54;100.00
12969;BME280;6549;53.128;8.182;2023-05-07T15:03:36;101830.25;;;16.64;100.00
12969;BME280;6549;53.128;8.182;2023-05-07T15:06:36;101835.41;;;16.58;100.00
12969;BME280;6549;53.128;8.182;2023-05-07T15:09:36;101831.03;;;16.60;100.00
12969;BME280;6549;53.128;8.182;2023-05-07T15:12:37;101830.22;;;16.67;100.00
12969;BME280;6549;53.128;8.182;2023-05-07T15:15:42;101840.50;;;16.81;100.00
12969;BME280;6549;53.128;8.182;2023-05-07T15:18:43;101829.81;;;16.69;100.00
12969;BME280;6549;53.128;8.182;2023-05-07T15:21:44;101825.34;;;16.96;100.00
12969;BME280;6549;53.128;8.182;2023-05-07T15:24:44;101832.97;;;16.81;100.00
12969;BME280;6549;53.128;8.182;2023-05-07T15:27:44;101842.13;;;16.64;100.00
12969;BME280;6549;53.128;8.182;2023-05-07T15:30:45;101831.03;;;16.43;100.00
12969;BME280;6549;53.128;8.182;2023-05-07T15:33:45;101831.41;;;16.70;100.00
12969;BME280;6549;53.128;8.182;2023-05-07T15:36:45;101834.22;;;16.63;100.00
12969;BME280;6549;53.128;8.182;2023-05-07T15:39:46;101839.34;;;16.64;100.00
12969;BME280;6549;53.128;8.182;2023-05-07T15:42:46;101845.31;;;16.59;100.00
12969;BME280;6549;53.128;8.182;2023-05-07T15:45:47;101852.44;;;16.49;100.00
12969;BME280;6549;53.128;8.182;2023-05-07T15:48:47;101846.50;;;16.44;100.00
12969;BME280;6549;53.128;8.182;2023-05-07T15:51:47;101855.66;;;16.23;100.00
12969;BME280;6549;53.128;8.182;2023-05-07T15:54:48;101844.53;;;16.30;100.00
12969;BME280;6549;53.128;8.182;2023-05-07T15:57:48;101847.28;;;16.44;100.00
12969;BME280;6549;53.128;8.182;2023-05-07T16:00:48;101847.69;;;16.53;100.00
12969;BME280;6549;53.128;8.182;2023-05-07T16:03:49;101842.94;;;16.40;100.00